Etusivu
METAR-TAF:

METAR-TAF

Lentoasemat :

Kairouan, Tunisia

Leveyspiiri: 35-40N, Pituuspiiri: 010-06E, korkeus merenpinnasta: 60 m

Tämänhetkinen sää

Tämä raportti tehtiin 23 minuuttia sitten, kello 02.00 UTC
Tuuli 6 kn luoteesta, vaihdellen lännen/lounaan ja pohjoisen välillä
Lämpötila 11°C
Kosteus 76%
Ilmanpaine 1013 hPa
Näkyvyys: 8000 m
Muutamia pilviä 2300 ft:n korkeudessa

METAR: DTTK 110200Z 32006KT 240V010 8000 FEW023 11/07 Q1013

Aika: 03:23 (02:23 UTC)


TAF: puuttuu

Säähavainnot ja -ennusteet yli 4000 lentoasemalta (METAR- ja TAF-raportit).

Käytössä olevat sääasemat on merkitty karttaan keltaisilla ja punaisilla pisteillä.

Aseta hiiri pisteen päälle nähdäksesi sääaseman nimen.

Klikkaa sitten nähdäksesi säähavainnot ja -ennusteet.

Kartan vaihtaminen: klikkaa mustalla rastilla varustettuja vihreitä pisteitä, niin voit zoomata sisään; viivalla varustettua vihreää pistettä, niin voit zoomata ulos tai vihreitä nuolia, niin pääset viereisille kartoille.


METAR-TAF: